Terminal Aerodrome Forecast
Issued by NWS

Home | Current Version | Previous Version | Text Only | Print | Product List | Glossary On
Versions: 1 2 3 4 5 6 7 8 9 10 11 12 13 14 15 16 17 18 19 20
000
FTUS43 KLSX 222300
TAFCPS
TAF
KCPS 222339Z 2300/2324 18006KT P6SM FEW040 SCT150 BKN250
     FM230700 VRB10G25KT 5SM TSRA BR BKN040CB
     FM230900 VRB05KT P6SM SCT040 BKN120
     FM231100 34005KT 4SM BR BKN030
     FM231400 01010KT P6SM SCT040=

USA.gov is the U.S. government's official web portal to all federal, state and local government web resources and services.